createdAt,value
2018-04-24T00:01:14.989Z,96967.28
2018-04-24T00:03:40.809Z,96962.07
2018-04-24T00:06:06.671Z,96968.13
2018-04-24T00:08:32.565Z,96968.55
2018-04-24T00:10:58.469Z,96970.92
2018-04-24T00:13:24.329Z,96960.52
2018-04-24T00:15:50.196Z,96966.61
2018-04-24T00:18:16.029Z,96970.38
2018-04-24T00:20:41.886Z,96973.42
2018-04-24T00:23:07.708Z,96976.69
2018-04-24T00:25:33.550Z,96978.40
2018-04-24T00:27:59.380Z,96978.58
2018-04-24T00:30:25.278Z,96977.31
2018-04-24T00:32:51.122Z,96975.31
2018-04-24T00:35:16.972Z,96978.74
2018-04-24T00:37:42.816Z,96982.19
2018-04-24T00:40:08.707Z,96984.00
2018-04-24T00:42:34.537Z,96981.45
2018-04-24T00:45:00.409Z,96984.44
2018-04-24T00:47:26.244Z,96974.09
2018-04-24T00:49:52.049Z,96964.95
2018-04-24T00:52:17.885Z,96978.21
2018-04-24T00:54:43.738Z,96980.20
2018-04-24T00:57:09.601Z,96974.09
2018-04-24T00:59:35.420Z,96972.22
2018-04-24T01:02:01.266Z,96971.11
2018-04-24T01:04:27.119Z,96963.18
2018-04-24T01:06:52.957Z,96970.28
2018-04-24T01:09:18.809Z,96967.65
2018-04-24T01:11:44.652Z,96968.67
2018-04-24T01:14:10.496Z,96969.17
2018-04-24T01:16:36.357Z,96969.95
2018-04-24T01:19:02.253Z,96966.02
2018-04-24T01:21:28.133Z,96976.55
2018-04-24T01:23:54.036Z,96983.92
2018-04-24T01:26:19.894Z,96982.95
2018-04-24T01:28:45.760Z,96978.77
2018-04-24T01:31:11.613Z,96980.58
2018-04-24T01:33:37.481Z,96974.19
2018-04-24T01:36:03.305Z,96973.31
2018-04-24T01:38:29.203Z,96977.64
2018-04-24T01:40:55.073Z,96965.21
2018-04-24T01:43:20.925Z,96967.77
2018-04-24T01:45:46.764Z,96970.16
2018-04-24T01:48:12.628Z,96965.00
2018-04-24T01:50:38.509Z,96968.10
2018-04-24T01:53:04.345Z,96963.34
2018-04-24T01:55:30.247Z,96963.72
2018-04-24T01:57:56.084Z,96970.98
2018-04-24T02:00:21.953Z,96983.66
2018-04-24T02:02:47.810Z,96976.75
2018-04-24T02:05:14.572Z,96970.57
2018-04-24T02:07:40.428Z,96973.15
2018-04-24T02:10:06.340Z,96974.16
2018-04-24T02:12:32.196Z,96971.89
2018-04-24T02:14:58.014Z,96974.81
2018-04-24T02:17:23.888Z,96989.16
2018-04-24T02:19:49.739Z,96989.48
2018-04-24T02:22:15.612Z,96993.43
2018-04-24T02:24:41.421Z,96988.55
2018-04-24T02:27:07.289Z,96985.89
2018-04-24T02:29:33.149Z,96988.56
2018-04-24T02:31:59.017Z,96995.92
2018-04-24T02:34:24.895Z,96990.28
2018-04-24T02:36:50.836Z,96994.38
2018-04-24T02:39:16.641Z,96990.11
2018-04-24T02:41:42.481Z,96987.38
2018-04-24T02:44:08.342Z,96990.89
2018-04-24T02:46:34.208Z,96996.59
2018-04-24T02:49:00.155Z,96994.68
2018-04-24T02:51:32.880Z,96995.47
2018-04-24T02:53:58.781Z,96991.37
2018-04-24T02:56:24.637Z,96994.56
2018-04-24T02:58:50.500Z,96999.93
2018-04-24T03:01:16.357Z,96997.74
2018-04-24T03:03:42.177Z,96998.19
2018-04-24T03:06:08.024Z,96990.72
2018-04-24T03:08:33.863Z,96990.06
2018-04-24T03:10:59.712Z,96997.28
2018-04-24T03:13:25.575Z,96990.14
2018-04-24T03:15:51.464Z,96992.63
2018-04-24T03:18:17.315Z,96991.53
2018-04-24T03:20:43.187Z,96977.24
2018-04-24T03:23:09.058Z,96983.55
2018-04-24T03:25:34.907Z,96992.63
2018-04-24T03:28:00.746Z,96995.02
2018-04-24T03:30:26.611Z,96993.52
2018-04-24T03:32:52.504Z,96993.88
2018-04-24T03:35:18.368Z,96995.94
2018-04-24T03:37:44.222Z,96994.27
2018-04-24T03:40:10.040Z,96992.23
2018-04-24T03:42:35.884Z,96993.33
2018-04-24T03:45:01.722Z,96987.08
2018-04-24T03:47:27.603Z,96994.33
2018-04-24T03:49:53.437Z,96989.62
2018-04-24T03:52:19.293Z,96992.66
2018-04-24T03:54:45.152Z,96997.20
2018-04-24T03:57:11.052Z,96993.77
2018-04-24T03:59:36.815Z,96997.27
2018-04-24T04:02:02.652Z,97002.75
2018-04-24T04:04:28.505Z,97002.47
2018-04-24T04:06:54.353Z,97006.23
2018-04-24T04:09:20.212Z,97006.62
2018-04-24T04:11:46.057Z,97012.21
2018-04-24T04:14:11.913Z,97012.48
2018-04-24T04:16:38.640Z,96999.39
2018-04-24T04:22:23.973Z,96988.30
2018-04-24T04:24:49.837Z,96999.81
2018-04-24T04:27:15.701Z,96990.84
2018-04-24T04:29:41.550Z,96993.77
2018-04-24T04:32:07.407Z,97001.86
2018-04-24T04:34:33.256Z,96996.88
2018-04-24T04:36:59.111Z,96997.70
2018-04-24T04:39:24.970Z,96996.43
2018-04-24T04:41:50.829Z,97005.68
2018-04-24T04:44:16.696Z,97004.52
2018-04-24T04:46:42.591Z,97007.53
2018-04-24T04:49:08.451Z,97014.23
2018-04-24T04:51:34.312Z,97006.81
2018-04-24T04:54:00.196Z,97015.17
2018-04-24T04:56:26.038Z,97014.06
2018-04-24T04:58:51.887Z,97011.96
2018-04-24T05:01:17.715Z,97016.78
2018-04-24T05:03:43.598Z,97019.94
2018-04-24T05:06:09.448Z,97017.89
2018-04-24T05:08:35.298Z,97017.86
2018-04-24T05:11:01.194Z,97019.77
2018-04-24T05:13:27.037Z,97023.38
2018-04-24T05:15:52.865Z,97026.64
2018-04-24T05:18:18.734Z,97035.11
2018-04-24T05:20:44.602Z,97037.77
2018-04-24T05:23:10.476Z,97036.94
2018-04-24T05:25:36.388Z,97042.50
2018-04-24T05:28:02.262Z,97041.56
2018-04-24T05:30:28.097Z,97047.30
2018-04-24T05:32:53.941Z,97044.58
2018-04-24T05:35:19.832Z,97050.28
2018-04-24T05:37:45.648Z,97055.38
2018-04-24T05:40:11.505Z,97057.81
2018-04-24T05:42:37.423Z,97059.92
2018-04-24T05:45:03.331Z,97061.11
2018-04-24T05:47:29.204Z,97056.44
2018-04-24T05:49:55.053Z,97063.73
2018-04-24T05:52:20.936Z,97060.36
2018-04-24T05:54:46.820Z,97065.73
2018-04-24T05:57:12.683Z,97071.39
2018-04-24T05:59:38.518Z,97075.73
2018-04-24T06:02:04.376Z,97083.11
2018-04-24T06:04:30.220Z,97088.92
2018-04-24T06:06:56.041Z,97091.64
2018-04-24T06:09:21.892Z,97101.30
2018-04-24T06:11:47.714Z,97098.70
2018-04-24T06:14:13.576Z,97099.11
2018-04-24T06:16:39.408Z,97098.39
2018-04-24T06:19:05.310Z,97089.03
2018-04-24T06:21:31.146Z,97088.81
2018-04-24T06:23:57.004Z,97095.46
2018-04-24T06:26:22.860Z,97094.68
2018-04-24T06:28:48.706Z,97095.51
2018-04-24T06:31:14.562Z,97091.56
2018-04-24T06:33:40.440Z,97085.14
2018-04-24T06:36:06.315Z,97088.75
2018-04-24T06:38:32.105Z,97081.98
2018-04-24T06:40:57.985Z,97080.61
2018-04-24T06:43:23.851Z,97071.82
2018-04-24T06:45:49.728Z,97064.59
2018-04-24T06:48:15.576Z,97057.22
2018-04-24T06:50:41.424Z,97067.90
2018-04-24T06:53:07.264Z,97073.32
2018-04-24T06:55:33.133Z,97073.45
2018-04-24T06:57:58.970Z,97073.46
2018-04-24T07:00:24.842Z,97070.57
2018-04-24T07:02:50.684Z,97073.47
2018-04-24T07:05:16.521Z,97073.55
2018-04-24T07:07:42.384Z,97061.17
2018-04-24T07:10:08.218Z,97065.33
2018-04-24T07:12:34.062Z,97049.56
2018-04-24T07:14:59.886Z,97061.84
2018-04-24T07:17:25.788Z,97066.63
2018-04-24T07:19:51.664Z,97067.16
2018-04-24T07:22:17.659Z,97060.16
2018-04-24T07:24:43.522Z,97062.91
2018-04-24T07:27:09.429Z,97073.41
2018-04-24T07:29:35.201Z,97076.75
2018-04-24T07:32:01.036Z,97070.25
2018-04-24T07:34:26.907Z,97081.84
2018-04-24T07:36:52.741Z,97074.34
2018-04-24T07:39:18.617Z,97067.89
2018-04-24T07:41:44.471Z,97073.13
2018-04-24T07:44:10.312Z,97068.11
2018-04-24T07:46:36.235Z,97074.05
2018-04-24T07:49:02.006Z,97073.48
2018-04-24T07:51:27.849Z,97076.28
2018-04-24T07:53:53.761Z,97082.69
2018-04-24T07:56:19.620Z,97072.33
2018-04-24T07:58:45.480Z,97073.64
2018-04-24T08:01:11.358Z,97071.16
2018-04-24T08:03:37.184Z,97064.27
2018-04-24T08:06:03.064Z,97063.00
2018-04-24T08:08:28.918Z,97067.16
2018-04-24T08:10:54.804Z,97069.77
2018-04-24T08:13:20.677Z,97067.53
2018-04-24T08:15:46.588Z,97069.31
2018-04-24T08:18:12.460Z,97072.50
2018-04-24T08:20:38.313Z,97071.30
2018-04-24T08:23:04.155Z,97071.56
2018-04-24T08:25:29.997Z,97069.77
2018-04-24T08:27:55.851Z,97073.39
2018-04-24T08:30:21.657Z,97078.92
2018-04-24T08:32:47.512Z,97056.41
2018-04-24T08:35:13.363Z,97074.45
2018-04-24T08:37:39.208Z,97078.20
2018-04-24T08:40:05.200Z,97044.41
2018-04-24T08:42:31.054Z,97067.89
2018-04-24T08:44:56.916Z,97067.05
2018-04-24T08:47:22.769Z,97073.66
2018-04-24T08:49:48.637Z,97066.98
2018-04-24T08:52:14.484Z,97079.81
2018-04-24T08:54:40.326Z,97059.35
2018-04-24T08:57:06.169Z,97064.86
2018-04-24T08:59:32.037Z,97075.20
2018-04-24T09:01:57.951Z,97073.69
2018-04-24T09:04:24.697Z,97074.33
2018-04-24T09:06:50.580Z,97070.88
2018-04-24T09:09:16.421Z,97069.08
2018-04-24T09:11:42.283Z,97065.97
2018-04-24T09:14:08.224Z,97065.78
2018-04-24T09:16:34.020Z,97075.51
2018-04-24T09:18:59.896Z,97061.41
2018-04-24T09:21:26.657Z,97059.74
2018-04-24T09:23:52.512Z,97068.59
2018-04-24T09:26:18.408Z,97063.78
2018-04-24T09:28:44.257Z,97065.78
2018-04-24T09:31:10.117Z,97070.12
2018-04-24T09:33:36.031Z,97066.48
2018-04-24T09:36:01.829Z,97073.73
2018-04-24T09:38:27.677Z,97067.22
2018-04-24T09:40:53.567Z,97052.64
2018-04-24T09:43:19.441Z,97068.38
2018-04-24T09:45:45.290Z,97070.12
2018-04-24T09:48:11.156Z,97060.15
2018-04-24T09:50:37.005Z,97059.30
2018-04-24T09:53:02.846Z,97060.06
2018-04-24T09:55:28.705Z,97048.96
2018-04-24T09:57:54.576Z,97044.66
2018-04-24T10:00:26.475Z,97036.50
2018-04-24T10:02:52.342Z,97051.26
2018-04-24T10:05:18.228Z,97048.45
2018-04-24T10:07:44.166Z,97042.22
2018-04-24T10:10:09.952Z,97045.55
2018-04-24T10:12:35.813Z,97048.95
2018-04-24T10:15:01.686Z,97036.03
2018-04-24T10:17:27.556Z,97035.47
2018-04-24T10:19:53.418Z,97029.23
2018-04-24T10:22:19.335Z,97041.16
2018-04-24T10:24:45.196Z,97043.78
2018-04-24T10:27:11.049Z,97021.07
2018-04-24T10:29:37.008Z,97030.48
2018-04-24T10:32:02.872Z,97024.62
2018-04-24T10:34:28.688Z,97037.63
2018-04-24T10:36:54.524Z,97037.27
2018-04-24T10:39:20.401Z,97017.77
2018-04-24T10:41:46.248Z,97034.89
2018-04-24T10:44:12.085Z,97040.57
2018-04-24T10:46:37.925Z,97032.86
2018-04-24T10:49:03.764Z,97022.73
2018-04-24T10:51:29.739Z,97018.07
2018-04-24T10:53:55.509Z,97009.03
2018-04-24T10:56:21.368Z,97026.52
2018-04-24T10:58:47.220Z,97025.62
2018-04-24T11:01:13.059Z,97026.50
2018-04-24T11:03:38.971Z,96997.20
2018-04-24T11:06:04.738Z,97020.42
2018-04-24T11:08:30.600Z,97016.76
2018-04-24T11:10:56.453Z,97014.14
2018-04-24T11:13:22.329Z,97016.48
2018-04-24T11:15:48.177Z,97022.38
2018-04-24T11:18:14.057Z,97013.37
2018-04-24T11:20:39.873Z,97004.22
2018-04-24T11:23:05.794Z,97008.83
2018-04-24T11:25:31.737Z,97002.83
2018-04-24T11:27:57.604Z,97014.88
2018-04-24T11:30:23.548Z,97015.62
2018-04-24T11:32:49.289Z,97005.76
2018-04-24T11:35:15.136Z,97002.78
2018-04-24T11:37:41.004Z,97009.80
2018-04-24T11:40:06.912Z,97008.48
2018-04-24T11:42:32.761Z,97001.48
2018-04-24T11:44:58.687Z,96996.75
2018-04-24T11:47:24.572Z,96993.93
2018-04-24T11:49:50.446Z,96990.51
2018-04-24T11:52:16.303Z,96996.59
2018-04-24T11:54:42.200Z,96995.61
2018-04-24T11:57:08.089Z,96987.44
2018-04-24T11:59:33.961Z,96991.77
2018-04-24T12:01:59.815Z,96985.86
2018-04-24T12:04:25.661Z,96982.76
2018-04-24T12:06:51.516Z,96991.13
2018-04-24T12:09:17.348Z,96990.53
2018-04-24T12:11:43.225Z,96976.77
2018-04-24T12:14:09.162Z,96978.93
2018-04-24T12:16:35.185Z,96971.92
2018-04-24T12:19:01.127Z,96976.33
2018-04-24T12:21:27.041Z,96967.53
2018-04-24T12:23:52.931Z,96971.38
2018-04-24T12:26:18.831Z,96968.02
2018-04-24T12:28:44.708Z,96964.16
2018-04-24T12:31:10.577Z,96969.20
2018-04-24T12:33:36.457Z,96963.67
2018-04-24T12:36:02.326Z,96966.06
2018-04-24T12:38:28.192Z,96961.75
2018-04-24T12:40:54.034Z,96960.43
2018-04-24T12:43:19.865Z,96965.48
2018-04-24T12:45:45.708Z,96948.77
2018-04-24T12:48:11.553Z,96952.72
2018-04-24T12:50:37.425Z,96951.03
2018-04-24T12:53:03.289Z,96948.81
2018-04-24T12:55:29.144Z,96951.70
2018-04-24T12:57:55.070Z,96948.95
2018-04-24T13:00:20.845Z,96949.64
2018-04-24T13:02:46.713Z,96933.97
2018-04-24T13:05:12.895Z,96937.08
2018-04-24T13:07:38.757Z,96936.56
2018-04-24T13:10:04.653Z,96922.78
2018-04-24T13:12:30.505Z,96943.52
2018-04-24T13:14:56.340Z,96932.13
2018-04-24T13:17:22.192Z,96928.56
2018-04-24T13:19:48.034Z,96934.19
2018-04-24T13:22:13.888Z,96923.52
2018-04-24T13:24:39.756Z,96933.23
2018-04-24T13:27:05.590Z,96930.09
2018-04-24T13:29:31.460Z,96929.39
2018-04-24T13:31:57.307Z,96939.95
2018-04-24T13:34:23.163Z,96925.48
2018-04-24T13:36:49.041Z,96922.13
2018-04-24T13:39:14.917Z,96907.67
2018-04-24T13:41:40.785Z,96902.91
2018-04-24T13:44:06.648Z,96895.98
2018-04-24T13:46:33.165Z,96886.98
2018-04-24T13:48:59.195Z,96899.41
2018-04-24T13:51:25.007Z,96904.25
2018-04-24T13:53:50.902Z,96896.34
2018-04-24T13:56:16.768Z,96890.77
2018-04-24T13:58:42.670Z,96894.44
2018-04-24T14:01:08.509Z,96887.11
2018-04-24T14:03:34.388Z,96887.11
2018-04-24T14:06:00.314Z,96879.62
2018-04-24T14:08:26.156Z,96875.14
2018-04-24T14:10:51.997Z,96873.00
2018-04-24T14:13:17.842Z,96854.95
2018-04-24T14:15:43.722Z,96867.14
2018-04-24T14:18:09.581Z,96863.48
2018-04-24T14:20:35.432Z,96865.20
2018-04-24T14:23:01.323Z,96859.25
2018-04-24T14:25:27.176Z,96845.60
2018-04-24T14:27:53.017Z,96851.17
2018-04-24T14:30:18.849Z,96849.64
2018-04-24T14:32:44.764Z,96844.05
2018-04-24T14:35:10.632Z,96838.10
2018-04-24T14:37:36.546Z,96839.63
2018-04-24T14:40:02.465Z,96831.92
2018-04-24T14:42:28.418Z,96830.98
2018-04-24T14:44:54.284Z,96819.00
2018-04-24T14:47:20.977Z,96835.05
2018-04-24T14:49:46.878Z,96826.77
2018-04-24T14:52:12.709Z,96828.51
2018-04-24T14:54:38.544Z,96836.56
2018-04-24T14:57:04.425Z,96821.02
2018-04-24T14:59:30.286Z,96828.64
2018-04-24T15:01:56.127Z,96821.78
2018-04-24T15:04:22.004Z,96818.84
2018-04-24T15:06:47.900Z,96821.95
2018-04-24T15:09:14.130Z,96824.66
2018-04-24T15:11:39.985Z,96821.69
2018-04-24T15:14:05.834Z,96818.21
2018-04-24T15:16:31.684Z,96815.16
2018-04-24T15:18:57.526Z,96812.38
2018-04-24T15:21:23.426Z,96822.92
2018-04-24T15:23:49.291Z,96823.09
2018-04-24T15:26:15.208Z,96821.58
2018-04-24T15:28:41.065Z,96826.88
2018-04-24T15:31:06.982Z,96817.70
2018-04-24T15:33:32.858Z,96818.71
2018-04-24T15:35:59.098Z,96814.84
2018-04-24T15:38:24.938Z,96818.06
2018-04-24T15:40:50.811Z,96799.67
2018-04-24T15:43:16.653Z,96807.63
2018-04-24T15:45:42.734Z,96811.55
2018-04-24T15:48:08.691Z,96818.09
2018-04-24T15:50:34.455Z,96806.91
2018-04-24T15:53:00.301Z,96797.66
2018-04-24T15:55:26.147Z,96802.80
2018-04-24T15:57:52.065Z,96794.14
2018-04-24T16:00:17.937Z,96795.75
2018-04-24T16:02:43.819Z,96791.29
2018-04-24T16:05:09.676Z,96784.69
2018-04-24T16:07:35.553Z,96789.05
2018-04-24T16:10:01.421Z,96787.33
2018-04-24T16:12:27.267Z,96787.04
2018-04-24T16:14:53.150Z,96783.87
2018-04-24T16:17:18.965Z,96774.80
2018-04-24T16:19:44.808Z,96787.31
2018-04-24T16:22:10.662Z,96776.30
2018-04-24T16:24:36.531Z,96784.23
2018-04-24T16:27:02.388Z,96780.83
2018-04-24T16:29:28.300Z,96769.67
2018-04-24T16:31:54.158Z,96760.05
2018-04-24T16:34:19.997Z,96774.19
2018-04-24T16:36:45.871Z,96775.65
2018-04-24T16:39:11.772Z,96757.89
2018-04-24T16:41:37.649Z,96768.20
2018-04-24T16:44:03.477Z,96763.66
2018-04-24T16:46:29.391Z,96772.53
2018-04-24T16:48:55.237Z,96773.42
2018-04-24T16:51:21.120Z,96766.91
2018-04-24T16:53:47.017Z,96766.95
2018-04-24T16:56:12.852Z,96771.11
2018-04-24T16:58:38.672Z,96768.95
2018-04-24T17:01:04.526Z,96761.61
2018-04-24T17:03:30.389Z,96761.83
2018-04-24T17:05:56.270Z,96756.86
2018-04-24T17:08:22.134Z,96763.52
2018-04-24T17:10:48.004Z,96764.86
2018-04-24T17:13:13.877Z,96762.42
2018-04-24T17:15:39.773Z,96758.73
2018-04-24T17:20:49.562Z,96756.71
2018-04-24T17:23:15.444Z,96762.30
2018-04-24T17:25:41.403Z,96753.38
2018-04-24T17:28:07.164Z,96757.17
2018-04-24T17:30:33.048Z,96756.03
2018-04-24T17:32:58.914Z,96754.83
2018-04-24T17:35:24.859Z,96751.63
2018-04-24T17:37:50.668Z,96750.09
2018-04-24T17:40:16.534Z,96758.59
2018-04-24T17:42:42.371Z,96760.36
2018-04-24T17:45:08.220Z,96761.45
2018-04-24T17:47:34.060Z,96755.64
2018-04-24T17:49:59.982Z,96753.47
2018-04-24T17:52:25.755Z,96754.00
2018-04-24T17:54:51.588Z,96759.02
2018-04-24T17:57:17.524Z,96755.33
2018-04-24T17:59:43.324Z,96753.19
2018-04-24T18:02:09.154Z,96751.41
2018-04-24T18:04:35.003Z,96749.77
2018-04-24T18:07:00.848Z,96753.22
2018-04-24T18:09:26.704Z,96752.50
2018-04-24T18:11:52.545Z,96757.28
2018-04-24T18:14:18.401Z,96756.45
2018-04-24T18:16:44.267Z,96761.73
2018-04-24T18:19:10.125Z,96759.30
2018-04-24T18:21:36.024Z,96763.38
2018-04-24T18:24:01.917Z,96764.15
2018-04-24T18:26:27.804Z,96768.69
2018-04-24T18:28:53.669Z,96773.47
2018-04-24T18:31:19.576Z,96768.23
2018-04-24T18:33:45.452Z,96770.34
2018-04-24T18:36:11.342Z,96763.16
2018-04-24T18:38:37.208Z,96772.81
2018-04-24T18:41:03.081Z,96769.27
2018-04-24T18:43:28.957Z,96769.25
2018-04-24T18:45:54.840Z,96767.05
2018-04-24T18:48:20.692Z,96768.70
2018-04-24T18:50:46.581Z,96763.13
2018-04-24T18:53:12.475Z,96760.89
2018-04-24T18:55:38.721Z,96762.11
2018-04-24T18:58:04.641Z,96768.97
2018-04-24T19:00:30.521Z,96772.05
2018-04-24T19:02:56.377Z,96766.34
2018-04-24T19:05:22.216Z,96768.59
2018-04-24T19:07:48.175Z,96773.11
2018-04-24T19:10:14.005Z,96770.13
2018-04-24T19:12:39.884Z,96770.98
2018-04-24T19:15:05.853Z,96772.75
2018-04-24T19:17:31.676Z,96775.49
2018-04-24T19:19:57.534Z,96772.38
2018-04-24T19:22:23.379Z,96777.97
2018-04-24T19:27:56.309Z,96784.47
2018-04-24T19:30:22.176Z,96784.23
2018-04-24T19:32:48.035Z,96780.30
2018-04-24T19:35:13.912Z,96779.70
2018-04-24T19:37:39.775Z,96775.41
2018-04-24T19:40:11.698Z,96777.61
2018-04-24T19:42:37.586Z,96766.80
2018-04-24T19:45:03.652Z,96767.83
2018-04-24T19:47:29.577Z,96772.05
2018-04-24T19:50:01.546Z,96760.20
2018-04-24T19:52:27.465Z,96760.78
2018-04-24T19:54:59.356Z,96766.98
2018-04-24T19:57:25.233Z,96764.63
2018-04-24T19:59:51.092Z,96762.37
2018-04-24T20:02:16.979Z,96763.67
2018-04-24T20:04:42.834Z,96758.95
2018-04-24T20:07:08.701Z,96758.50
2018-04-24T20:09:34.676Z,96761.74
2018-04-24T20:12:00.574Z,96759.91
2018-04-24T20:14:26.443Z,96761.29
2018-04-24T20:16:52.316Z,96759.00
2018-04-24T20:19:18.247Z,96753.84
2018-04-24T20:21:44.121Z,96748.75
2018-04-24T20:24:09.999Z,96753.87
2018-04-24T20:26:35.887Z,96748.23
2018-04-24T20:29:01.746Z,96748.13
2018-04-24T20:31:27.581Z,96746.97
2018-04-24T20:33:53.466Z,96743.45
2018-04-24T20:36:19.333Z,96739.32
2018-04-24T20:38:45.240Z,96732.38
2018-04-24T20:41:11.092Z,96724.03
2018-04-24T20:43:36.960Z,96730.17
2018-04-24T20:46:02.828Z,96728.45
2018-04-24T20:48:28.708Z,96730.91
2018-04-24T20:50:54.552Z,96740.89
2018-04-24T20:53:20.491Z,96728.05
2018-04-24T20:55:46.249Z,96732.16
2018-04-24T20:58:12.128Z,96727.88
2018-04-24T21:00:38.055Z,96719.94
2018-04-24T21:03:03.864Z,96717.40
2018-04-24T21:05:29.725Z,96716.98
2018-04-24T21:07:55.563Z,96714.25
2018-04-24T21:10:21.440Z,96710.03
2018-04-24T21:12:47.289Z,96715.80
2018-04-24T21:15:13.161Z,96710.08
2018-04-24T21:17:39.024Z,96719.39
2018-04-24T21:20:04.940Z,96715.40
2018-04-24T21:22:30.803Z,96703.48
2018-04-24T21:24:56.671Z,96700.27
2018-04-24T21:27:22.541Z,96701.00
2018-04-24T21:29:48.436Z,96698.52
2018-04-24T21:32:14.272Z,96693.31
2018-04-24T21:34:40.167Z,96693.83
2018-04-24T21:37:06.032Z,96698.84
2018-04-24T21:39:31.928Z,96701.64
2018-04-24T21:41:57.845Z,96694.56
2018-04-24T21:44:23.727Z,96694.04
2018-04-24T21:46:49.586Z,96691.84
2018-04-24T21:49:15.451Z,96691.63
2018-04-24T21:51:41.385Z,96689.14
2018-04-24T21:54:07.228Z,96682.94
2018-04-24T21:56:33.088Z,96681.19
2018-04-24T21:58:58.942Z,96681.39
2018-04-24T22:01:24.788Z,96681.91
2018-04-24T22:03:50.656Z,96685.13
2018-04-24T22:06:16.565Z,96679.36
2018-04-24T22:08:42.439Z,96681.11
2018-04-24T22:11:08.301Z,96680.78
2018-04-24T22:13:34.224Z,96680.93
2018-04-24T22:15:59.977Z,96677.90
2018-04-24T22:18:25.828Z,96678.41
2018-04-24T22:20:51.672Z,96676.80
2018-04-24T22:23:17.501Z,96671.48
2018-04-24T22:25:43.376Z,96670.55
2018-04-24T22:28:09.240Z,96676.05
2018-04-24T22:30:35.116Z,96671.13
2018-04-24T22:33:01.017Z,96667.99
2018-04-24T22:35:26.861Z,96662.48
2018-04-24T22:37:52.734Z,96661.53
2018-04-24T22:40:18.600Z,96667.20
2018-04-24T22:42:44.457Z,96665.66
2018-04-24T22:45:10.330Z,96660.58
2018-04-24T22:47:36.181Z,96663.77
2018-04-24T22:50:02.053Z,96657.84
2018-04-24T22:52:27.924Z,96648.39
2018-04-24T22:54:53.816Z,96656.59
2018-04-24T22:57:19.644Z,96648.44
2018-04-24T22:59:52.529Z,96651.57
2018-04-24T23:02:18.376Z,96649.08
2018-04-24T23:04:44.209Z,96642.63
2018-04-24T23:07:10.064Z,96645.25
2018-04-24T23:09:35.925Z,96644.67
2018-04-24T23:12:13.900Z,96648.31
2018-04-24T23:14:52.001Z,96648.92
2018-04-24T23:17:29.978Z,96642.70
2018-04-24T23:20:08.073Z,96643.39
2018-04-24T23:22:33.964Z,96648.67
2018-04-24T23:24:59.817Z,96645.26
2018-04-24T23:27:25.705Z,96641.00
2018-04-24T23:29:51.554Z,96642.66
2018-04-24T23:32:17.431Z,96639.20
2018-04-24T23:34:43.275Z,96634.00
2018-04-24T23:37:09.148Z,96632.78
2018-04-24T23:39:34.997Z,96631.00
2018-04-24T23:42:00.875Z,96632.49
2018-04-24T23:44:26.772Z,96627.80
2018-04-24T23:46:52.640Z,96631.72
2018-04-24T23:49:18.513Z,96629.09
2018-04-24T23:51:44.372Z,96629.70
2018-04-24T23:54:10.236Z,96627.55
2018-04-24T23:56:36.125Z,96615.34
2018-04-24T23:59:01.985Z,96620.70
